Time;durP1;ratioP1;P1;durP2;ratioP2;P2;SDS_P1;SDS_P2;PMS_P1;PMS_P2;Temp;Humidity;BMP_temperature;BMP_pressure;BME280_temperature;BME280_humidity;BME280_pressure;Samples;Min_cycle;Max_cycle;Signal;HPM_P1;HPM_P2
2022/10/06 00:00:35;;;;;;;4.95;3.13;;;11.90;99.90;;;;;;6232975;23;20031;-64
2022/10/06 00:03:01;;;;;;;4.90;3.10;;;11.80;99.90;;;;;;6230031;23;20004;-64
2022/10/06 00:05:26;;;;;;;6.57;3.63;;;11.80;99.90;;;;;;6228870;23;20456;-65
2022/10/06 00:07:53;;;;;;;6.07;3.83;;;11.70;99.90;;;;;;6232095;23;20092;-65
2022/10/06 00:10:18;;;;;;;4.63;3.80;;;11.70;99.90;;;;;;6225733;22;20869;-65
2022/10/06 00:12:49;;;;;;;8.18;3.75;;;11.60;99.90;;;;;;6224936;23;20000;-65
2022/10/06 00:15:21;;;;;;;5.43;4.17;;;11.60;99.90;;;;;;6230180;23;20008;-65
2022/10/06 00:17:46;;;;;;;4.83;4.03;;;11.50;99.90;;;;;;6228860;23;20024;-65
2022/10/06 00:20:13;;;;;;;4.95;4.43;;;11.40;99.90;;;;;;6227199;23;20257;-66
2022/10/06 00:22:47;;;;;;;5.63;4.43;;;11.40;99.90;;;;;;6227810;23;20083;-65
2022/10/06 00:25:17;;;;;;;6.93;4.85;;;11.40;99.90;;;;;;6225852;23;20042;-80
2022/10/06 00:27:46;;;;;;;6.55;4.75;;;11.40;99.90;;;;;;6230345;23;20414;-83
2022/10/06 00:30:14;;;;;;;6.97;5.65;;;11.40;99.90;;;;;;6229429;23;20619;-82
2022/10/06 00:32:40;;;;;;;8.35;6.05;;;11.40;99.90;;;;;;6228465;23;20000;-83
2022/10/06 00:35:08;;;;;;;8.80;5.45;;;11.30;99.90;;;;;;6231617;23;20078;-83
2022/10/06 00:37:36;;;;;;;10.73;6.70;;;11.30;99.90;;;;;;6233633;23;20521;-83
2022/10/06 00:40:08;;;;;;;8.07;6.15;;;11.30;99.90;;;;;;6233089;23;20011;-82
2022/10/06 00:42:47;;;;;;;7.78;5.88;;;11.30;99.90;;;;;;6231495;23;20016;-74
2022/10/06 00:45:13;;;;;;;7.18;5.38;;;11.40;99.90;;;;;;6227467;23;20092;-65
2022/10/06 00:47:38;;;;;;;8.35;6.00;;;11.30;99.90;;;;;;6231498;23;20037;-64
2022/10/06 00:50:05;;;;;;;7.60;5.93;;;11.20;99.90;;;;;;6232699;23;20376;-64
2022/10/06 00:52:30;;;;;;;7.68;6.15;;;11.20;99.90;;;;;;6232835;23;20015;-65
2022/10/06 00:54:59;;;;;;;7.20;4.68;;;11.10;99.90;;;;;;6233595;23;20083;-65
2022/10/06 00:57:26;;;;;;;6.38;4.50;;;11.10;99.90;;;;;;6234691;23;20008;-65
2022/10/06 00:59:52;;;;;;;8.93;4.65;;;10.80;99.90;;;;;;6234874;23;20447;-64
2022/10/06 01:02:25;;;;;;;5.97;4.70;;;10.70;99.90;;;;;;6231876;23;20004;-65
2022/10/06 01:04:55;;;;;;;8.23;4.70;;;10.60;99.90;;;;;;6234390;23;20432;-66
2022/10/06 01:07:23;;;;;;;8.52;5.00;;;10.50;99.90;;;;;;6233908;23;20011;-65
2022/10/06 01:09:49;;;;;;;5.32;4.25;;;10.50;99.90;;;;;;6231890;22;20004;-65
2022/10/06 01:12:15;;;;;;;5.68;4.18;;;10.50;99.90;;;;;;6234151;23;20010;-65
2022/10/06 01:14:41;;;;;;;6.15;4.63;;;10.50;99.90;;;;;;6233048;23;20026;-65
2022/10/06 01:17:33;;;;;;;7.53;4.88;;;10.50;99.90;;;;;;6231688;23;20046;-65
2022/10/06 01:20:16;;;;;;;7.95;4.32;;;10.50;99.90;;;;;;6231070;23;20007;-65
2022/10/06 01:22:45;;;;;;;6.78;4.40;;;10.40;99.90;;;;;;6232511;23;20008;-64
2022/10/06 01:25:16;;;;;;;4.88;4.38;;;10.40;99.90;;;;;;6231267;23;20016;-65
2022/10/06 01:27:45;;;;;;;4.43;3.88;;;10.30;99.90;;;;;;6231602;23;20027;-65
2022/10/06 01:30:21;;;;;;;5.57;4.20;;;10.30;99.90;;;;;;6230684;23;20000;-65
2022/10/06 01:32:47;;;;;;;4.90;3.90;;;10.30;99.90;;;;;;6229806;23;20099;-64
2022/10/06 01:35:12;;;;;;;6.18;4.68;;;10.20;99.90;;;;;;6233113;23;20098;-65
2022/10/06 01:37:38;;;;;;;5.03;3.88;;;10.10;99.90;;;;;;6231742;23;20012;-64
2022/10/06 01:40:04;;;;;;;6.13;4.15;;;10.10;99.90;;;;;;6234418;23;20387;-65
2022/10/06 01:42:32;;;;;;;5.05;3.88;;;10.00;99.90;;;;;;6233702;23;20054;-71
2022/10/06 01:44:58;;;;;;;5.30;4.15;;;10.10;99.90;;;;;;6236541;23;20067;-71
2022/10/06 01:47:24;;;;;;;5.00;3.95;;;10.10;99.90;;;;;;6232284;23;20008;-71
2022/10/06 01:49:50;;;;;;;3.45;3.13;;;10.10;99.90;;;;;;6233773;23;20386;-71
2022/10/06 01:52:15;;;;;;;5.22;3.50;;;10.00;99.90;;;;;;6230914;23;20010;-71
2022/10/06 01:54:41;;;;;;;2.85;2.60;;;10.10;99.90;;;;;;6234442;23;20046;-70
2022/10/06 01:57:10;;;;;;;3.05;2.63;;;10.00;99.90;;;;;;6235307;23;20000;-71
2022/10/06 01:59:35;;;;;;;2.20;2.00;;;9.90;99.90;;;;;;6236694;23;19996;-71
2022/10/06 02:02:01;;;;;;;2.65;2.20;;;9.90;99.90;;;;;;6233079;23;20008;-64
2022/10/06 02:04:27;;;;;;;6.05;2.72;;;9.80;99.90;;;;;;6234021;23;20035;-65
2022/10/06 02:06:54;;;;;;;4.10;2.28;;;9.80;99.90;;;;;;6234699;23;20089;-65
2022/10/06 02:09:20;;;;;;;3.40;3.00;;;9.70;99.90;;;;;;6235843;23;20011;-65
2022/10/06 02:11:46;;;;;;;3.03;2.60;;;9.70;99.90;;;;;;6231989;22;20095;-65
2022/10/06 02:14:12;;;;;;;2.92;2.63;;;9.60;99.90;;;;;;6233691;23;20089;-64
2022/10/06 02:16:38;;;;;;;4.25;2.80;;;9.60;99.90;;;;;;6230362;23;20374;-65
2022/10/06 02:19:05;;;;;;;2.60;2.40;;;9.60;99.90;;;;;;6232789;23;20011;-64
2022/10/06 02:21:31;;;;;;;2.30;2.10;;;9.50;99.90;;;;;;6232204;23;20101;-64
2022/10/06 02:23:56;;;;;;;5.35;2.92;;;9.60;99.90;;;;;;6230331;23;20032;-65
2022/10/06 02:26:22;;;;;;;6.10;2.83;;;9.50;99.90;;;;;;6232597;23;20022;-65
2022/10/06 02:28:51;;;;;;;2.90;2.45;;;9.60;99.90;;;;;;6233859;23;20000;-65
2022/10/06 02:31:16;;;;;;;3.58;3.28;;;9.50;99.90;;;;;;6233190;23;20442;-65
2022/10/06 02:33:43;;;;;;;2.22;2.03;;;9.50;99.90;;;;;;6232378;23;20009;-65
2022/10/06 02:36:11;;;;;;;2.28;2.08;;;9.50;99.90;;;;;;6232983;23;20416;-65
2022/10/06 02:38:37;;;;;;;3.22;2.08;;;9.50;99.90;;;;;;6232415;23;20081;-65
2022/10/06 02:41:03;;;;;;;3.50;3.03;;;9.40;99.90;;;;;;6233088;23;20007;-71
2022/10/06 02:43:30;;;;;;;2.65;2.45;;;9.30;99.90;;;;;;6231517;23;20008;-71
2022/10/06 02:46:01;;;;;;;3.10;2.80;;;9.30;99.90;;;;;;6233203;23;20085;-71
2022/10/06 02:48:28;;;;;;;3.90;2.60;;;9.20;99.90;;;;;;6233168;23;20422;-71
2022/10/06 02:51:01;;;;;;;3.42;2.72;;;9.20;99.90;;;;;;6230129;23;20011;-70
2022/10/06 02:53:28;;;;;;;5.75;2.78;;;9.20;99.90;;;;;;6232601;23;20066;-70
2022/10/06 02:55:59;;;;;;;3.75;3.45;;;9.20;99.90;;;;;;6234588;23;20047;-71
2022/10/06 02:58:25;;;;;;;3.80;2.92;;;9.20;99.90;;;;;;6231911;23;20004;-71
2022/10/06 03:00:51;;;;;;;3.17;1.58;;;9.10;99.90;;;;;;6231719;23;20000;-71
2022/10/06 03:03:16;;;;;;;2.92;2.20;;;8.80;99.90;;;;;;6230498;23;20310;-71
2022/10/06 03:05:42;;;;;;;3.30;1.92;;;8.80;99.90;;;;;;6232418;23;20022;-71
2022/10/06 03:08:10;;;;;;;5.53;2.38;;;8.80;99.90;;;;;;6231709;23;20043;-70
2022/10/06 03:10:35;;;;;;;3.08;2.78;;;8.80;99.90;;;;;;6231295;22;20012;-71
2022/10/06 03:13:01;;;;;;;3.97;2.67;;;8.80;99.90;;;;;;6233124;23;20004;-71
2022/10/06 03:15:27;;;;;;;4.20;2.25;;;8.80;99.90;;;;;;6229685;23;20011;-71
2022/10/06 03:17:53;;;;;;;3.67;2.28;;;8.90;99.90;;;;;;6231889;23;20081;-71
2022/10/06 03:20:18;;;;;;;2.45;2.25;;;8.80;99.90;;;;;;6231987;23;20004;-70
2022/10/06 03:22:44;;;;;;;2.38;2.17;;;8.80;99.90;;;;;;6229007;23;20103;-71
2022/10/06 03:25:10;;;;;;;2.33;2.13;;;8.80;99.90;;;;;;6232919;23;20538;-70
2022/10/06 03:27:35;;;;;;;2.55;2.35;;;8.70;99.90;;;;;;6232485;23;20138;-70
2022/10/06 03:30:02;;;;;;;5.30;2.80;;;8.70;99.90;;;;;;6232869;23;20643;-71
2022/10/06 03:32:27;;;;;;;3.22;2.35;;;8.70;99.90;;;;;;6230281;23;20003;-70
2022/10/06 03:34:53;;;;;;;2.25;2.05;;;8.80;99.90;;;;;;6232713;23;20005;-70
2022/10/06 03:37:19;;;;;;;6.25;2.60;;;8.80;99.90;;;;;;6232607;23;20570;-70
2022/10/06 03:39:44;;;;;;;2.65;2.45;;;8.80;99.90;;;;;;6234399;23;20016;-71
2022/10/06 03:42:10;;;;;;;2.65;2.30;;;8.80;99.90;;;;;;6232872;23;20008;-70
2022/10/06 03:44:35;;;;;;;5.30;2.70;;;8.80;99.90;;;;;;6234196;23;20024;-71
2022/10/06 03:47:01;;;;;;;7.28;4.10;;;8.80;99.90;;;;;;6232934;23;20027;-71
2022/10/06 03:49:26;;;;;;;6.95;4.85;;;8.80;99.90;;;;;;6233961;23;20078;-70
2022/10/06 03:51:52;;;;;;;6.38;5.20;;;8.80;99.90;;;;;;6232506;23;20007;-71
2022/10/06 03:54:18;;;;;;;9.88;8.43;;;8.80;99.90;;;;;;6232665;23;20070;-71
2022/10/06 03:56:44;;;;;;;6.65;4.90;;;8.80;99.90;;;;;;6232996;23;20004;-71
2022/10/06 03:59:12;;;;;;;5.40;4.90;;;8.80;99.90;;;;;;6233619;23;20000;-71
2022/10/06 04:01:42;;;;;;;5.65;4.15;;;8.80;99.90;;;;;;6232629;23;20008;-70
2022/10/06 04:04:09;;;;;;;4.43;3.70;;;8.80;99.90;;;;;;6233860;23;20083;-71
2022/10/06 04:06:37;;;;;;;6.03;4.40;;;8.70;99.90;;;;;;6235086;23;20027;-70
2022/10/06 04:09:05;;;;;;;6.53;4.97;;;8.50;99.90;;;;;;6237228;23;20004;-70
2022/10/06 04:11:34;;;;;;;4.28;3.38;;;8.50;99.90;;;;;;6234469;22;20306;-71
2022/10/06 04:14:02;;;;;;;1.55;1.45;;;8.40;99.90;;;;;;6233898;23;20004;-70
2022/10/06 04:16:39;;;;;;;1.45;1.33;;;8.50;99.90;;;;;;6232704;23;20004;-65
2022/10/06 04:19:08;;;;;;;2.72;1.05;;;8.30;99.90;;;;;;6232788;23;20083;-65
2022/10/06 04:21:36;;;;;;;1.90;1.10;;;8.10;99.90;;;;;;6231264;22;20014;-65
2022/10/06 04:24:02;;;;;;;2.47;1.17;;;8.00;99.90;;;;;;6232032;23;20015;-65
2022/10/06 04:26:30;;;;;;;1.30;1.08;;;8.10;99.90;;;;;;6233052;23;20058;-65
2022/10/06 04:28:57;;;;;;;1.00;1.00;;;8.10;99.90;;;;;;6233751;23;20032;-65
2022/10/06 04:31:25;;;;;;;1.60;1.50;;;8.10;99.90;;;;;;6232020;23;20004;-65
2022/10/06 04:33:53;;;;;;;3.97;1.60;;;8.10;99.90;;;;;;6232434;23;20300;-65
2022/10/06 04:36:22;;;;;;;4.05;2.17;;;8.00;99.90;;;;;;6232854;23;20020;-65
2022/10/06 04:38:57;;;;;;;4.22;2.05;;;8.00;99.90;;;;;;6232120;23;20004;-65
2022/10/06 04:41:34;;;;;;;2.00;1.80;;;8.10;99.90;;;;;;6233816;23;20469;-65
2022/10/06 04:44:01;;;;;;;2.13;1.80;;;8.10;99.90;;;;;;6233598;23;20010;-65
2022/10/06 04:46:27;;;;;;;4.95;2.60;;;8.10;99.90;;;;;;6230416;23;20024;-65
2022/10/06 04:48:54;;;;;;;3.58;2.85;;;8.10;99.90;;;;;;6232846;23;20014;-65
2022/10/06 04:51:21;;;;;;;5.35;4.53;;;8.10;99.90;;;;;;6228382;23;20011;-65
2022/10/06 04:53:48;;;;;;;7.70;6.72;;;8.20;99.90;;;;;;6230955;23;20691;-65
2022/10/06 04:56:19;;;;;;;4.45;4.00;;;8.20;99.90;;;;;;6233331;23;20012;-65
2022/10/06 04:58:47;;;;;;;4.85;4.20;;;8.20;99.90;;;;;;6228745;23;20043;-64
2022/10/06 05:01:29;;;;;;;7.47;5.45;;;8.10;99.90;;;;;;6230117;23;20081;-65
2022/10/06 05:03:57;;;;;;;6.60;5.20;;;8.10;99.90;;;;;;6233470;23;20087;-64
2022/10/06 05:06:26;;;;;;;6.72;5.57;;;8.20;99.90;;;;;;6233325;23;20508;-64
2022/10/06 05:08:57;;;;;;;3.38;2.30;;;8.10;99.90;;;;;;6232077;23;20004;-64
2022/10/06 05:11:23;;;;;;;4.95;2.40;;;8.10;99.90;;;;;;6233845;22;20004;-64
2022/10/06 05:13:54;;;;;;;3.80;2.67;;;8.10;99.90;;;;;;6232851;23;20011;-63
2022/10/06 05:16:20;;;;;;;1.80;1.60;;;8.10;99.90;;;;;;6231276;23;20004;-64
2022/10/06 05:18:45;;;;;;;1.50;1.40;;;8.00;99.90;;;;;;6229916;23;20491;-64
2022/10/06 05:21:20;;;;;;;4.53;1.60;;;8.00;99.90;;;;;;6232785;23;20079;-64
2022/10/06 05:23:45;;;;;;;2.28;1.98;;;7.90;99.90;;;;;;6228792;23;20030;-63
2022/10/06 05:26:13;;;;;;;2.10;1.60;;;7.70;99.90;;;;;;6229276;23;20008;-64
2022/10/06 05:28:39;;;;;;;3.00;1.63;;;7.80;99.90;;;;;;6228450;23;20072;-64
2022/10/06 05:31:13;;;;;;;2.92;2.00;;;7.80;99.90;;;;;;6228496;23;20170;-64
2022/10/06 05:33:40;;;;;;;4.47;2.00;;;8.00;99.90;;;;;;6229366;23;20010;-64
2022/10/06 05:36:11;;;;;;;2.05;1.85;;;8.00;99.90;;;;;;6230180;23;20070;-64
2022/10/06 05:38:37;;;;;;;4.67;2.10;;;8.10;99.90;;;;;;6226356;23;20019;-63
2022/10/06 05:41:10;;;;;;;5.63;2.28;;;8.20;99.90;;;;;;6229705;23;20129;-65
2022/10/06 05:43:37;;;;;;;4.40;2.70;;;8.30;99.90;;;;;;6227736;23;20119;-64
2022/10/06 05:46:06;;;;;;;4.60;2.55;;;8.40;99.90;;;;;;6227489;23;20016;-65
2022/10/06 05:48:32;;;;;;;2.20;1.95;;;8.50;99.90;;;;;;6233502;23;20000;-64
2022/10/06 05:51:06;;;;;;;5.72;2.70;;;8.60;99.90;;;;;;6228801;23;20016;-70
2022/10/06 05:53:36;;;;;;;3.50;2.80;;;8.70;99.90;;;;;;6231748;23;19996;-72
2022/10/06 05:56:10;;;;;;;6.47;4.38;;;8.80;99.90;;;;;;6230684;23;20437;-72
2022/10/06 05:58:38;;;;;;;3.85;3.45;;;9.00;99.90;;;;;;6232837;23;20082;-77
2022/10/06 06:01:23;;;;;;;5.43;3.90;;;9.10;99.90;;;;;;6228141;23;20085;-70
2022/10/06 06:03:54;;;;;;;9.85;4.25;;;9.20;99.90;;;;;;6230621;22;20237;-71
2022/10/06 06:06:21;;;;;;;5.50;4.60;;;9.30;99.90;;;;;;6232218;22;20042;-71
2022/10/06 06:08:50;;;;;;;9.25;7.68;;;9.40;99.90;;;;;;6232328;23;20035;-66
2022/10/06 06:11:15;;;;;;;8.80;7.55;;;9.60;99.90;;;;;;6234848;22;20024;-65
2022/10/06 06:13:41;;;;;;;7.82;7.13;;;9.70;99.90;;;;;;6233802;23;20558;-66
2022/10/06 06:16:11;;;;;;;7.93;7.13;;;9.80;99.90;;;;;;6234107;23;20008;-66
2022/10/06 06:18:36;;;;;;;9.85;7.68;;;9.90;99.90;;;;;;6233543;23;20062;-65
2022/10/06 06:21:05;;;;;;;10.55;6.85;;;9.90;99.90;;;;;;6234172;23;20430;-66
2022/10/06 06:23:36;;;;;;;12.18;7.65;;;10.00;99.90;;;;;;6234313;23;20065;-66
2022/10/06 06:26:07;;;;;;;8.27;6.80;;;10.10;99.90;;;;;;6234980;23;20016;-65
2022/10/06 06:28:34;;;;;;;7.68;6.72;;;10.10;99.90;;;;;;6231919;23;20012;-65
2022/10/06 06:31:05;;;;;;;8.52;6.60;;;10.20;99.90;;;;;;6233505;23;20723;-66
2022/10/06 06:33:36;;;;;;;9.70;6.93;;;10.40;99.90;;;;;;6232145;23;20146;-66
2022/10/06 06:36:10;;;;;;;15.02;9.20;;;10.40;99.90;;;;;;6233959;22;20019;-66
2022/10/06 06:38:36;;;;;;;10.82;8.55;;;10.50;99.90;;;;;;6234018;23;20000;-65
2022/10/06 06:41:01;;;;;;;8.75;7.85;;;10.60;99.90;;;;;;6232033;23;20091;-65
2022/10/06 06:43:27;;;;;;;18.17;11.55;;;10.80;99.90;;;;;;6234107;23;20039;-66
2022/10/06 06:45:53;;;;;;;15.05;10.88;;;10.90;99.90;;;;;;6231997;22;20012;-65
2022/10/06 06:48:18;;;;;;;15.77;9.95;;;11.00;99.90;;;;;;6234915;23;20008;-66
2022/10/06 06:50:44;;;;;;;12.10;9.75;;;11.10;99.90;;;;;;6233694;23;20018;-65
2022/10/06 06:53:13;;;;;;;14.50;9.95;;;11.20;99.90;;;;;;6233326;23;20005;-66
2022/10/06 06:55:49;;;;;;;13.23;9.10;;;11.20;99.90;;;;;;6233638;23;20011;-65
2022/10/06 06:58:15;;;;;;;13.55;9.40;;;11.40;99.90;;;;;;6232991;23;20031;-66
2022/10/06 07:00:41;;;;;;;11.25;8.73;;;11.70;99.90;;;;;;6231539;23;20481;-65
2022/10/06 07:03:11;;;;;;;8.82;7.50;;;12.00;99.90;;;;;;6234599;23;19996;-65
2022/10/06 07:05:38;;;;;;;10.48;7.35;;;12.30;99.90;;;;;;6235680;23;20480;-65
2022/10/06 07:08:07;;;;;;;11.25;8.07;;;12.60;99.90;;;;;;6235622;23;20004;-65
2022/10/06 07:10:35;;;;;;;10.80;7.10;;;12.80;99.90;;;;;;6230269;22;20007;-65
2022/10/06 07:13:01;;;;;;;10.38;7.90;;;13.10;99.90;;;;;;6234417;22;20027;-65
2022/10/06 07:26:23;;;;;;;7.47;6.00;;;14.30;99.90;;;;;;6231816;23;20047;-65
2022/10/06 07:28:48;;;;;;;8.02;6.15;;;14.50;99.90;;;;;;6232659;23;20012;-66
2022/10/06 07:31:17;;;;;;;14.32;7.13;;;14.60;99.90;;;;;;6232682;23;20500;-66
2022/10/06 07:33:43;;;;;;;10.25;7.22;;;14.80;99.90;;;;;;6233092;23;20000;-65
2022/10/06 07:36:10;;;;;;;8.15;7.35;;;15.00;99.90;;;;;;6231947;23;20027;-66
2022/10/06 07:38:36;;;;;;;10.43;6.90;;;15.20;99.90;;;;;;6236251;23;19993;-65
2022/10/06 07:41:02;;;;;;;10.95;7.97;;;15.30;99.90;;;;;;6234155;23;20030;-65
2022/10/06 07:43:27;;;;;;;10.40;7.63;;;15.50;99.90;;;;;;6234734;23;20000;-65
2022/10/06 07:45:53;;;;;;;12.98;9.43;;;15.70;99.90;;;;;;6233954;23;20627;-65
2022/10/06 07:48:21;;;;;;;11.30;7.90;;;15.90;99.90;;;;;;6233955;23;20004;-66
2022/10/06 07:50:51;;;;;;;11.77;7.95;;;16.10;99.90;;;;;;6233960;23;20007;-66
2022/10/06 07:53:17;;;;;;;10.27;7.90;;;16.30;99.90;;;;;;6232753;23;20004;-66
2022/10/06 07:55:46;;;;;;;10.65;7.80;;;16.40;99.90;;;;;;6234904;22;20031;-67
2022/10/06 07:58:22;;;;;;;7.45;6.18;;;16.60;99.90;;;;;;6237439;23;20015;-66
2022/10/06 08:00:47;;;;;;;9.63;7.25;;;16.60;99.90;;;;;;6231292;23;20284;-67
2022/10/06 08:03:16;;;;;;;7.30;6.05;;;16.60;99.90;;;;;;6229171;23;20776;-66
2022/10/06 08:05:43;;;;;;;7.63;4.72;;;16.70;99.90;;;;;;6232332;23;20035;-66
2022/10/06 08:08:08;;;;;;;7.50;5.07;;;16.80;99.90;;;;;;6232972;23;19996;-67
2022/10/06 08:10:34;;;;;;;6.07;5.00;;;16.80;99.90;;;;;;6234414;22;20063;-66
2022/10/06 08:13:04;;;;;;;9.40;5.55;;;16.90;99.90;;;;;;6235233;23;20046;-66
2022/10/06 08:15:29;;;;;;;7.03;4.43;;;17.10;99.90;;;;;;6235652;23;20074;-67
2022/10/06 08:17:57;;;;;;;5.32;4.82;;;17.10;99.90;;;;;;6232833;23;20330;-66
2022/10/06 08:20:23;;;;;;;7.75;5.15;;;17.20;99.90;;;;;;6234450;23;20067;-66
2022/10/06 08:22:48;;;;;;;6.10;5.13;;;17.20;99.90;;;;;;6234366;23;20441;-72
2022/10/06 08:25:14;;;;;;;12.13;5.82;;;17.20;99.90;;;;;;6235641;23;20012;-72
2022/10/06 08:27:43;;;;;;;9.85;5.65;;;17.10;99.90;;;;;;6234197;23;20422;-71
2022/10/06 08:30:10;;;;;;;7.38;5.20;;;17.10;99.90;;;;;;6235351;23;20515;-71
2022/10/06 08:32:36;;;;;;;8.73;5.20;;;17.20;99.90;;;;;;6234556;23;19996;-71
2022/10/06 08:35:02;;;;;;;5.82;4.38;;;17.10;99.90;;;;;;6228902;23;20012;-72
2022/10/06 08:37:28;;;;;;;9.07;4.68;;;17.20;99.90;;;;;;6234370;23;20318;-71
2022/10/06 08:39:54;;;;;;;8.52;4.75;;;17.10;99.90;;;;;;6234239;23;20000;-71
2022/10/06 08:42:40;;;;;;;4.93;3.92;;;17.10;99.90;;;;;;6234740;23;20008;-66
2022/10/06 08:45:13;;;;;;;8.07;3.95;;;17.10;99.90;;;;;;6235234;23;20710;-66
2022/10/06 08:47:49;;;;;;;6.93;4.15;;;17.00;99.90;;;;;;6234458;23;20368;-66
2022/10/06 08:50:14;;;;;;;4.80;3.45;;;16.90;99.90;;;;;;6228959;23;20065;-66
2022/10/06 08:52:50;;;;;;;5.40;3.80;;;16.90;99.90;;;;;;6230351;23;20695;-66
2022/10/06 08:55:32;;;;;;;6.72;4.78;;;16.90;99.90;;;;;;6229185;23;20039;-66
2022/10/06 08:57:57;;;;;;;8.10;3.60;;;16.90;99.90;;;;;;6232041;23;20032;-67
2022/10/06 09:00:23;;;;;;;4.75;3.53;;;17.00;99.90;;;;;;6232812;23;20824;-66
2022/10/06 09:02:49;;;;;;;8.38;3.90;;;17.10;99.90;;;;;;6230593;23;20080;-66
2022/10/06 09:05:24;;;;;;;6.25;3.50;;;17.10;99.90;;;;;;6234178;23;20015;-67
2022/10/06 09:08:14;;;;;;;4.45;3.45;;;17.20;99.90;;;;;;6230403;23;20014;-66
2022/10/06 09:11:03;;;;;;;7.70;3.60;;;17.20;99.90;;;;;;6233707;22;20413;-66
2022/10/06 09:13:42;;;;;;;6.63;3.83;;;17.20;99.90;;;;;;6231111;23;20008;-66
2022/10/06 09:16:13;;;;;;;5.40;3.60;;;17.20;99.90;;;;;;6231582;23;20018;-65
2022/10/06 09:18:48;;;;;;;7.60;3.45;;;17.30;99.90;;;;;;6231443;23;20000;-66
2022/10/06 09:21:44;;;;;;;4.40;3.00;;;17.40;99.90;;;;;;6232548;22;20082;-66
2022/10/06 09:24:15;;;;;;;5.93;2.97;;;17.50;99.90;;;;;;6226450;22;20508;-66
2022/10/06 09:26:47;;;;;;;5.60;3.60;;;17.50;99.90;;;;;;6235725;23;20012;-67
2022/10/06 09:29:13;;;;;;;;;;;17.60;99.90;;;;;;6235788;23;20509;-68
2022/10/06 09:31:42;;;;;;;8.02;3.53;;;17.60;99.90;;;;;;6232436;22;19929;-66
2022/10/06 09:34:16;;;;;;;8.23;2.85;;;17.60;99.90;;;;;;6233825;23;20103;-66
2022/10/06 09:36:58;;;;;;;5.22;2.90;;;17.70;99.90;;;;;;6234315;23;20066;-65
2022/10/06 09:39:25;;;;;;;7.40;3.10;;;17.80;99.90;;;;;;6234259;22;20046;-66
2022/10/06 09:41:53;;;;;;;3.53;2.75;;;17.90;99.90;;;;;;6229995;23;20096;-66
2022/10/06 09:44:29;;;;;;;5.80;2.58;;;18.10;99.90;;;;;;6232805;23;20035;-67
2022/10/06 09:46:55;;;;;;;5.40;2.63;;;18.30;99.90;;;;;;6230199;23;20015;-66
2022/10/06 09:49:25;;;;;;;4.65;2.90;;;18.40;99.90;;;;;;6236056;23;20000;-67
2022/10/06 09:52:09;;;;;;;3.80;2.25;;;18.50;99.90;;;;;;6233999;23;20281;-66
2022/10/06 09:54:37;;;;;;;4.82;2.47;;;18.60;99.90;;;;;;6236187;23;20027;-67
2022/10/06 09:57:25;;;;;;;3.47;2.22;;;18.70;99.90;;;;;;6235492;23;20828;-66
2022/10/06 09:59:51;;;;;;;3.40;2.58;;;18.90;99.90;;;;;;6233604;23;20791;-67
2022/10/06 10:02:35;;;;;;;5.97;2.75;;;19.00;99.90;;;;;;6231143;23;20495;-66
2022/10/06 10:05:02;;;;;;;4.05;2.35;;;19.10;99.90;;;;;;6235162;23;20015;-64
2022/10/06 10:07:29;;;;;;;3.38;2.65;;;19.20;99.90;;;;;;6234060;23;20087;-64
2022/10/06 10:10:23;;;;;;;4.57;2.83;;;19.10;99.90;;;;;;6229037;22;20012;-63
2022/10/06 10:12:55;;;;;;;4.82;2.67;;;19.10;99.90;;;;;;6231799;22;20067;-64
2022/10/06 10:15:21;;;;;;;3.28;2.33;;;19.10;99.90;;;;;;6232234;23;20012;-64
2022/10/06 10:17:50;;;;;;;5.20;2.78;;;19.10;99.90;;;;;;6230981;23;20008;-64
2022/10/06 10:20:26;;;;;;;3.97;2.67;;;19.20;99.90;;;;;;6231713;23;20012;-64
2022/10/06 10:22:54;;;;;;;6.65;2.60;;;19.30;99.90;;;;;;6232744;23;20258;-64
2022/10/06 10:25:43;;;;;;;4.15;2.42;;;19.30;99.90;;;;;;6232553;23;20074;-64
2022/10/06 10:28:23;;;;;;;6.82;2.72;;;19.40;99.90;;;;;;6229196;23;20096;-64
2022/10/06 10:31:19;;;;;;;5.30;2.60;;;19.50;99.90;;;;;;6231507;23;20004;-65
2022/10/06 10:33:53;;;;;;;3.58;2.45;;;19.50;99.90;;;;;;6232698;23;20647;-64
2022/10/06 10:36:24;;;;;;;2.95;2.40;;;19.50;99.90;;;;;;6231266;23;20086;-64
2022/10/06 10:38:52;;;;;;;4.33;2.43;;;19.50;99.90;;;;;;6231256;23;20070;-64
2022/10/06 10:41:21;;;;;;;4.75;2.58;;;19.60;99.90;;;;;;6234203;23;20001;-64
2022/10/06 10:44:04;;;;;;;3.08;2.20;;;19.60;99.90;;;;;;6230341;23;20742;-64
2022/10/06 10:46:52;;;;;;;2.63;2.05;;;19.70;99.90;;;;;;6232071;23;20016;-65
2022/10/06 10:49:25;;;;;;;3.22;2.40;;;19.80;99.90;;;;;;6233328;22;20631;-64
2022/10/06 10:51:55;;;;;;;8.57;2.40;;;19.70;99.90;;;;;;6229539;23;20437;-64
2022/10/06 10:54:29;;;;;;;5.05;2.55;;;19.80;99.90;;;;;;6234305;23;20437;-64
2022/10/06 10:56:57;;;;;;;4.28;2.38;;;19.90;99.90;;;;;;6233945;23;20897;-70
2022/10/06 10:59:26;;;;;;;3.47;2.30;;;19.90;99.90;;;;;;6234546;23;20000;-70
2022/10/06 11:01:58;;;;;;;3.65;2.50;;;20.00;99.90;;;;;;6233539;23;20014;-72
2022/10/06 11:04:24;;;;;;;4.10;2.55;;;20.10;99.90;;;;;;6232759;23;20344;-70
2022/10/06 11:07:12;;;;;;;3.80;2.45;;;20.10;99.90;;;;;;6235854;23;20011;-70
2022/10/06 11:09:58;;;;;;;5.72;2.95;;;20.20;99.90;;;;;;6233824;22;20011;-70
2022/10/06 11:12:51;;;;;;;6.57;2.90;;;20.20;99.90;;;;;;6234952;23;20010;-69
2022/10/06 11:15:22;;;;;;;5.85;2.78;;;20.20;99.90;;;;;;6232923;23;20007;-65
2022/10/06 11:17:52;;;;;;;2.92;2.35;;;20.20;99.90;;;;;;6231273;22;20059;-65
2022/10/06 11:20:38;;;;;;;3.28;2.40;;;20.20;99.90;;;;;;6233011;23;20505;-66
2022/10/06 11:23:40;;;;;;;3.33;2.10;;;20.20;99.90;;;;;;6230934;22;20464;-66
2022/10/06 11:26:24;;;;;;;5.13;2.15;;;20.30;99.90;;;;;;6232300;23;20012;-66
2022/10/06 11:29:13;;;;;;;3.75;1.98;;;20.40;99.90;;;;;;6233781;23;20062;-66
2022/10/06 11:32:15;;;;;;;4.20;2.00;;;20.50;99.90;;;;;;6232745;23;20205;-66
2022/10/06 11:34:42;;;;;;;3.78;2.70;;;20.60;99.90;;;;;;6203650;22;20442;-66
2022/10/06 11:37:25;;;;;;;3.17;2.05;;;20.60;99.90;;;;;;6234141;22;20020;-66
2022/10/06 11:40:01;;;;;;;2.50;1.70;;;20.70;99.90;;;;;;6234769;23;20031;-66
2022/10/06 11:42:41;;;;;;;1.95;1.60;;;20.70;99.90;;;;;;6231551;23;20000;-67
2022/10/06 11:45:13;;;;;;;3.05;1.70;;;20.80;99.90;;;;;;6234998;23;20433;-66
2022/10/06 11:48:15;;;;;;;3.88;2.00;;;20.80;99.90;;;;;;6234282;23;20377;-66
2022/10/06 11:50:43;;;;;;;4.82;2.05;;;20.80;99.90;;;;;;6234387;22;20004;-66
2022/10/06 11:53:35;;;;;;;1.83;1.45;;;20.80;99.90;;;;;;6234334;23;20074;-65
2022/10/06 11:56:16;;;;;;;5.25;2.22;;;20.80;99.90;;;;;;6231391;23;20859;-66
2022/10/06 11:58:54;;;;;;;3.38;1.88;;;20.70;99.90;;;;;;6233333;23;20464;-66
2022/10/06 12:01:42;;;;;;;3.58;1.65;;;20.60;99.90;;;;;;6232638;23;20024;-66
2022/10/06 12:04:08;;;;;;;3.70;1.70;;;20.60;99.90;;;;;;6229123;23;20004;-66
2022/10/06 12:06:45;;;;;;;4.15;1.88;;;20.70;99.90;;;;;;6230086;23;20008;-65
2022/10/06 12:09:23;;;;;;;3.47;1.65;;;20.70;99.90;;;;;;6228318;23;20016;-66
2022/10/06 12:11:50;;;;;;;2.47;1.60;;;20.80;99.90;;;;;;6231164;22;20023;-66
2022/10/06 12:14:39;;;;;;;3.55;1.65;;;20.80;99.90;;;;;;6230553;23;20004;-67
2022/10/06 12:17:23;;;;;;;3.92;1.70;;;21.00;99.90;;;;;;6214012;23;20009;-67
2022/10/06 12:19:58;;;;;;;2.88;1.60;;;21.00;99.90;;;;;;6229993;23;20015;-66
2022/10/06 12:22:28;;;;;;;4.38;1.77;;;21.00;99.90;;;;;;6230145;23;20087;-67
2022/10/06 12:24:57;;;;;;;2.85;1.75;;;21.00;99.90;;;;;;6233178;23;20038;-66
2022/10/06 12:27:28;;;;;;;3.33;1.55;;;21.00;99.90;;;;;;6233700;23;20091;-66
2022/10/06 12:30:12;;;;;;;2.95;1.90;;;21.10;99.90;;;;;;6236209;23;20023;-66
2022/10/06 12:32:45;;;;;;;5.00;1.88;;;21.20;99.90;;;;;;6235890;22;20008;-66
2022/10/06 12:35:33;;;;;;;2.83;2.17;;;21.10;99.90;;;;;;6236045;23;20035;-65
2022/10/06 12:38:04;;;;;;;2.30;1.67;;;21.20;99.90;;;;;;6235426;23;20106;-65
2022/10/06 12:40:47;;;;;;;2.15;1.52;;;21.30;99.90;;;;;;6235841;23;20035;-66
2022/10/06 12:43:13;;;;;;;3.20;1.70;;;21.30;99.90;;;;;;6235694;23;20004;-66
2022/10/06 12:46:09;;;;;;;7.30;2.17;;;21.30;99.90;;;;;;6235435;23;20022;-65
2022/10/06 12:48:46;;;;;;;2.10;1.90;;;21.30;99.90;;;;;;6234589;22;19996;-66
2022/10/06 12:51:11;;;;;;;7.40;2.00;;;21.30;99.90;;;;;;6230850;23;20004;-66
2022/10/06 12:53:47;;;;;;;3.55;1.80;;;21.30;99.90;;;;;;6231282;23;20030;-66
2022/10/06 12:56:28;;;;;;;3.90;1.95;;;21.30;99.90;;;;;;6234261;23;20422;-67
2022/10/06 12:58:54;;;;;;;2.25;1.75;;;21.30;99.90;;;;;;6237189;23;20024;-66
2022/10/06 13:01:21;;;;;;;2.05;1.65;;;21.30;99.90;;;;;;6234908;23;20079;-66
2022/10/06 13:03:51;;;;;;;8.95;1.85;;;21.30;99.90;;;;;;6229901;23;20012;-69
2022/10/06 13:06:22;;;;;;;2.80;1.75;;;21.30;99.90;;;;;;6235392;23;20449;-68
2022/10/06 13:09:04;;;;;;;4.15;1.98;;;21.30;99.90;;;;;;6231015;23;20035;-82
2022/10/06 13:11:30;;;;;;;4.93;1.90;;;21.30;99.90;;;;;;6232393;22;20004;-78
2022/10/06 13:14:05;;;;;;;3.08;2.00;;;21.40;99.90;;;;;;6232890;23;20051;-72
2022/10/06 13:16:38;;;;;;;4.45;1.58;;;21.50;99.90;;;;;;6232935;23;20428;-73
2022/10/06 13:19:05;;;;;;;3.60;1.70;;;21.60;99.90;;;;;;6235413;23;20043;-69